sensor_id;sensor_type;location;lat;lon;timestamp;P1;durP1;ratioP1;P2;durP2;ratioP2
7193;SDS011;3638;48.820;9.244;2023-09-12T00:01:24;13.73;;;9.77;;
7193;SDS011;3638;48.820;9.244;2023-09-12T00:03:51;10.75;;;9.07;;
7193;SDS011;3638;48.820;9.244;2023-09-12T00:06:20;12.70;;;9.27;;
7193;SDS011;3638;48.820;9.244;2023-09-12T00:08:47;11.85;;;9.02;;
7193;SDS011;3638;48.820;9.244;2023-09-12T00:11:14;13.00;;;8.75;;
7193;SDS011;3638;48.820;9.244;2023-09-12T00:13:41;13.95;;;9.38;;
7193;SDS011;3638;48.820;9.244;2023-09-12T00:16:09;11.00;;;9.00;;
7193;SDS011;3638;48.820;9.244;2023-09-12T00:18:36;14.90;;;8.55;;
7193;SDS011;3638;48.820;9.244;2023-09-12T00:21:03;10.00;;;8.23;;
7193;SDS011;3638;48.820;9.244;2023-09-12T00:23:32;11.77;;;8.38;;
7193;SDS011;3638;48.820;9.244;2023-09-12T00:25:59;14.82;;;9.55;;
7193;SDS011;3638;48.820;9.244;2023-09-12T00:28:26;11.52;;;8.75;;
7193;SDS011;3638;48.820;9.244;2023-09-12T00:30:54;11.90;;;9.07;;
7193;SDS011;3638;48.820;9.244;2023-09-12T00:33:21;13.45;;;8.25;;
7193;SDS011;3638;48.820;9.244;2023-09-12T00:35:48;10.93;;;8.32;;
7193;SDS011;3638;48.820;9.244;2023-09-12T00:38:15;10.77;;;8.23;;
7193;SDS011;3638;48.820;9.244;2023-09-12T00:40:44;12.50;;;9.05;;
7193;SDS011;3638;48.820;9.244;2023-09-12T00:43:11;10.88;;;8.85;;
7193;SDS011;3638;48.820;9.244;2023-09-12T00:45:38;10.00;;;8.55;;
7193;SDS011;3638;48.820;9.244;2023-09-12T00:48:06;11.57;;;8.70;;
7193;SDS011;3638;48.820;9.244;2023-09-12T00:50:34;11.18;;;8.30;;
7193;SDS011;3638;48.820;9.244;2023-09-12T00:53:02;13.25;;;8.82;;
7193;SDS011;3638;48.820;9.244;2023-09-12T00:55:31;9.48;;;8.30;;
7193;SDS011;3638;48.820;9.244;2023-09-12T00:58:00;12.60;;;8.98;;
7193;SDS011;3638;48.820;9.244;2023-09-12T01:00:28;12.93;;;9.40;;
7193;SDS011;3638;48.820;9.244;2023-09-12T01:02:55;12.00;;;8.70;;
7193;SDS011;3638;48.820;9.244;2023-09-12T01:05:23;15.25;;;9.25;;
7193;SDS011;3638;48.820;9.244;2023-09-12T01:07:50;12.90;;;9.07;;
7193;SDS011;3638;48.820;9.244;2023-09-12T01:10:17;12.20;;;9.40;;
7193;SDS011;3638;48.820;9.244;2023-09-12T01:12:45;11.75;;;9.43;;
7193;SDS011;3638;48.820;9.244;2023-09-12T01:15:13;12.88;;;8.85;;
7193;SDS011;3638;48.820;9.244;2023-09-12T01:17:41;12.68;;;8.68;;
7193;SDS011;3638;48.820;9.244;2023-09-12T01:20:10;13.10;;;9.05;;
7193;SDS011;3638;48.820;9.244;2023-09-12T01:22:45;12.63;;;9.30;;
7193;SDS011;3638;48.820;9.244;2023-09-12T01:28:34;15.13;;;10.63;;
7193;SDS011;3638;48.820;9.244;2023-09-12T01:31:01;13.20;;;9.40;;
7193;SDS011;3638;48.820;9.244;2023-09-12T01:33:29;11.45;;;9.23;;
7193;SDS011;3638;48.820;9.244;2023-09-12T01:35:56;13.57;;;9.20;;
7193;SDS011;3638;48.820;9.244;2023-09-12T01:38:24;15.52;;;9.68;;
7193;SDS011;3638;48.820;9.244;2023-09-12T01:40:53;11.25;;;9.18;;
7193;SDS011;3638;48.820;9.244;2023-09-12T01:43:22;10.15;;;8.80;;
7193;SDS011;3638;48.820;9.244;2023-09-12T01:45:52;10.60;;;8.95;;
7193;SDS011;3638;48.820;9.244;2023-09-12T01:48:21;13.07;;;9.10;;
7193;SDS011;3638;48.820;9.244;2023-09-12T01:50:49;10.73;;;9.35;;
7193;SDS011;3638;48.820;9.244;2023-09-12T01:53:17;12.73;;;8.73;;
7193;SDS011;3638;48.820;9.244;2023-09-12T01:55:45;12.32;;;8.63;;
7193;SDS011;3638;48.820;9.244;2023-09-12T01:58:13;11.90;;;8.55;;
7193;SDS011;3638;48.820;9.244;2023-09-12T02:00:41;12.25;;;8.77;;
7193;SDS011;3638;48.820;9.244;2023-09-12T02:03:09;11.48;;;8.80;;
7193;SDS011;3638;48.820;9.244;2023-09-12T02:05:36;11.80;;;8.65;;
7193;SDS011;3638;48.820;9.244;2023-09-12T02:08:04;12.15;;;9.20;;
7193;SDS011;3638;48.820;9.244;2023-09-12T02:10:31;10.75;;;8.48;;
7193;SDS011;3638;48.820;9.244;2023-09-12T02:12:58;13.07;;;8.23;;
7193;SDS011;3638;48.820;9.244;2023-09-12T02:15:26;9.65;;;8.27;;
7193;SDS011;3638;48.820;9.244;2023-09-12T02:17:53;14.77;;;9.38;;
7193;SDS011;3638;48.820;9.244;2023-09-12T02:20:22;10.68;;;8.98;;
7193;SDS011;3638;48.820;9.244;2023-09-12T02:22:49;11.93;;;9.48;;
7193;SDS011;3638;48.820;9.244;2023-09-12T02:25:16;12.68;;;8.85;;
7193;SDS011;3638;48.820;9.244;2023-09-12T02:27:46;13.73;;;9.10;;
7193;SDS011;3638;48.820;9.244;2023-09-12T02:30:13;9.77;;;8.38;;
7193;SDS011;3638;48.820;9.244;2023-09-12T02:32:41;11.48;;;9.20;;
7193;SDS011;3638;48.820;9.244;2023-09-12T02:35:08;11.80;;;8.82;;
7193;SDS011;3638;48.820;9.244;2023-09-12T02:37:37;12.88;;;9.88;;
7193;SDS011;3638;48.820;9.244;2023-09-12T02:40:04;12.82;;;8.98;;
7193;SDS011;3638;48.820;9.244;2023-09-12T02:42:35;12.48;;;8.98;;
7193;SDS011;3638;48.820;9.244;2023-09-12T02:45:03;13.35;;;9.75;;
7193;SDS011;3638;48.820;9.244;2023-09-12T02:47:31;17.83;;;9.32;;
7193;SDS011;3638;48.820;9.244;2023-09-12T02:49:58;11.73;;;9.10;;
7193;SDS011;3638;48.820;9.244;2023-09-12T02:52:26;11.48;;;9.32;;
7193;SDS011;3638;48.820;9.244;2023-09-12T02:54:54;11.82;;;9.18;;
7193;SDS011;3638;48.820;9.244;2023-09-12T02:57:21;11.93;;;9.15;;
7193;SDS011;3638;48.820;9.244;2023-09-12T02:59:49;15.43;;;9.38;;
7193;SDS011;3638;48.820;9.244;2023-09-12T03:02:16;10.85;;;9.05;;
7193;SDS011;3638;48.820;9.244;2023-09-12T03:04:43;13.43;;;9.48;;
7193;SDS011;3638;48.820;9.244;2023-09-12T03:07:10;15.50;;;9.68;;
7193;SDS011;3638;48.820;9.244;2023-09-12T03:09:38;13.25;;;8.68;;
7193;SDS011;3638;48.820;9.244;2023-09-12T03:12:06;14.77;;;9.27;;
7193;SDS011;3638;48.820;9.244;2023-09-12T03:14:34;11.70;;;8.98;;
7193;SDS011;3638;48.820;9.244;2023-09-12T03:17:01;13.32;;;9.70;;
7193;SDS011;3638;48.820;9.244;2023-09-12T03:19:29;12.88;;;9.02;;
7193;SDS011;3638;48.820;9.244;2023-09-12T03:21:56;11.98;;;8.55;;
7193;SDS011;3638;48.820;9.244;2023-09-12T03:24:24;10.98;;;9.68;;
7193;SDS011;3638;48.820;9.244;2023-09-12T03:26:53;11.52;;;9.27;;
7193;SDS011;3638;48.820;9.244;2023-09-12T03:29:22;11.73;;;9.15;;
7193;SDS011;3638;48.820;9.244;2023-09-12T03:31:49;12.40;;;10.57;;
7193;SDS011;3638;48.820;9.244;2023-09-12T03:34:16;13.23;;;10.02;;
7193;SDS011;3638;48.820;9.244;2023-09-12T03:36:44;14.75;;;11.05;;
7193;SDS011;3638;48.820;9.244;2023-09-12T03:39:11;13.02;;;10.75;;
7193;SDS011;3638;48.820;9.244;2023-09-12T03:41:38;14.93;;;10.93;;
7193;SDS011;3638;48.820;9.244;2023-09-12T03:44:06;17.23;;;11.32;;
7193;SDS011;3638;48.820;9.244;2023-09-12T03:46:35;13.82;;;10.32;;
7193;SDS011;3638;48.820;9.244;2023-09-12T03:49:02;15.20;;;11.23;;
7193;SDS011;3638;48.820;9.244;2023-09-12T03:51:29;13.27;;;10.45;;
7193;SDS011;3638;48.820;9.244;2023-09-12T03:53:56;13.32;;;9.80;;
7193;SDS011;3638;48.820;9.244;2023-09-12T03:56:23;16.77;;;10.95;;
7193;SDS011;3638;48.820;9.244;2023-09-12T03:58:51;14.85;;;10.70;;
7193;SDS011;3638;48.820;9.244;2023-09-12T04:01:21;14.88;;;10.40;;
7193;SDS011;3638;48.820;9.244;2023-09-12T04:03:50;13.77;;;10.45;;
7193;SDS011;3638;48.820;9.244;2023-09-12T04:06:17;11.68;;;10.00;;
7193;SDS011;3638;48.820;9.244;2023-09-12T04:08:44;13.10;;;9.88;;
7193;SDS011;3638;48.820;9.244;2023-09-12T04:11:12;12.75;;;9.55;;
7193;SDS011;3638;48.820;9.244;2023-09-12T04:13:39;14.60;;;10.63;;
7193;SDS011;3638;48.820;9.244;2023-09-12T04:16:06;15.98;;;10.20;;
7193;SDS011;3638;48.820;9.244;2023-09-12T04:18:33;16.33;;;10.40;;
7193;SDS011;3638;48.820;9.244;2023-09-12T04:21:02;15.70;;;9.32;;
7193;SDS011;3638;48.820;9.244;2023-09-12T04:23:29;14.32;;;10.18;;
7193;SDS011;3638;48.820;9.244;2023-09-12T04:25:56;13.65;;;9.63;;
7193;SDS011;3638;48.820;9.244;2023-09-12T04:28:28;13.20;;;9.38;;
7193;SDS011;3638;48.820;9.244;2023-09-12T04:31:00;13.13;;;9.57;;
7193;SDS011;3638;48.820;9.244;2023-09-12T04:33:28;15.13;;;9.60;;
7193;SDS011;3638;48.820;9.244;2023-09-12T04:35:57;11.35;;;9.18;;
7193;SDS011;3638;48.820;9.244;2023-09-12T04:38:26;14.55;;;9.88;;
7193;SDS011;3638;48.820;9.244;2023-09-12T04:40:54;15.23;;;10.07;;
7193;SDS011;3638;48.820;9.244;2023-09-12T04:43:22;13.82;;;9.90;;
7193;SDS011;3638;48.820;9.244;2023-09-12T04:45:49;15.32;;;10.35;;
7193;SDS011;3638;48.820;9.244;2023-09-12T04:48:17;22.65;;;9.98;;
7193;SDS011;3638;48.820;9.244;2023-09-12T04:50:44;13.80;;;10.50;;
7193;SDS011;3638;48.820;9.244;2023-09-12T04:53:11;14.15;;;10.35;;
7193;SDS011;3638;48.820;9.244;2023-09-12T04:55:40;14.35;;;10.48;;
7193;SDS011;3638;48.820;9.244;2023-09-12T04:58:07;15.95;;;10.25;;
7193;SDS011;3638;48.820;9.244;2023-09-12T05:00:34;17.77;;;10.50;;
7193;SDS011;3638;48.820;9.244;2023-09-12T05:03:02;13.23;;;10.25;;
7193;SDS011;3638;48.820;9.244;2023-09-12T05:05:29;15.85;;;10.48;;
7193;SDS011;3638;48.820;9.244;2023-09-12T05:07:57;16.08;;;10.30;;
7193;SDS011;3638;48.820;9.244;2023-09-12T05:10:24;18.48;;;9.48;;
7193;SDS011;3638;48.820;9.244;2023-09-12T05:12:53;17.35;;;10.38;;
7193;SDS011;3638;48.820;9.244;2023-09-12T05:15:20;11.88;;;9.52;;
7193;SDS011;3638;48.820;9.244;2023-09-12T05:17:47;12.98;;;9.68;;
7193;SDS011;3638;48.820;9.244;2023-09-12T05:20:14;12.38;;;9.68;;
7193;SDS011;3638;48.820;9.244;2023-09-12T05:22:42;15.43;;;10.32;;
7193;SDS011;3638;48.820;9.244;2023-09-12T05:25:09;14.50;;;10.30;;
7193;SDS011;3638;48.820;9.244;2023-09-12T05:27:36;12.30;;;9.88;;
7193;SDS011;3638;48.820;9.244;2023-09-12T05:30:06;12.20;;;9.45;;
7193;SDS011;3638;48.820;9.244;2023-09-12T05:32:33;12.10;;;9.77;;
7193;SDS011;3638;48.820;9.244;2023-09-12T05:35:01;15.40;;;9.95;;
7193;SDS011;3638;48.820;9.244;2023-09-12T05:37:29;13.15;;;9.48;;
7193;SDS011;3638;48.820;9.244;2023-09-12T05:39:56;13.30;;;9.70;;
7193;SDS011;3638;48.820;9.244;2023-09-12T05:42:23;13.00;;;8.90;;
7193;SDS011;3638;48.820;9.244;2023-09-12T05:44:51;12.45;;;9.55;;
7193;SDS011;3638;48.820;9.244;2023-09-12T05:47:19;14.30;;;9.43;;
7193;SDS011;3638;48.820;9.244;2023-09-12T05:49:47;12.88;;;9.98;;
7193;SDS011;3638;48.820;9.244;2023-09-12T05:52:14;12.93;;;9.48;;
7193;SDS011;3638;48.820;9.244;2023-09-12T05:54:42;11.90;;;9.10;;
7193;SDS011;3638;48.820;9.244;2023-09-12T05:57:10;15.20;;;10.35;;
7193;SDS011;3638;48.820;9.244;2023-09-12T05:59:38;11.93;;;9.48;;
7193;SDS011;3638;48.820;9.244;2023-09-12T06:02:05;13.60;;;9.52;;
7193;SDS011;3638;48.820;9.244;2023-09-12T06:04:35;17.10;;;9.45;;
7193;SDS011;3638;48.820;9.244;2023-09-12T06:07:03;14.20;;;9.23;;
7193;SDS011;3638;48.820;9.244;2023-09-12T06:09:30;14.25;;;9.68;;
7193;SDS011;3638;48.820;9.244;2023-09-12T06:11:58;12.25;;;8.68;;
7193;SDS011;3638;48.820;9.244;2023-09-12T06:14:25;16.65;;;9.38;;
7193;SDS011;3638;48.820;9.244;2023-09-12T06:16:52;11.93;;;8.68;;
7193;SDS011;3638;48.820;9.244;2023-09-12T06:19:19;12.82;;;9.40;;
7193;SDS011;3638;48.820;9.244;2023-09-12T06:21:48;12.18;;;9.35;;
7193;SDS011;3638;48.820;9.244;2023-09-12T06:24:16;12.52;;;8.95;;
7193;SDS011;3638;48.820;9.244;2023-09-12T06:26:46;16.02;;;8.73;;
7193;SDS011;3638;48.820;9.244;2023-09-12T06:29:13;13.25;;;8.30;;
7193;SDS011;3638;48.820;9.244;2023-09-12T06:31:41;11.77;;;8.75;;
7193;SDS011;3638;48.820;9.244;2023-09-12T06:34:08;10.38;;;8.60;;
7193;SDS011;3638;48.820;9.244;2023-09-12T06:36:38;13.80;;;8.93;;
7193;SDS011;3638;48.820;9.244;2023-09-12T06:39:07;13.40;;;8.40;;
7193;SDS011;3638;48.820;9.244;2023-09-12T06:41:35;17.85;;;9.13;;
7193;SDS011;3638;48.820;9.244;2023-09-12T06:44:02;13.68;;;9.68;;
7193;SDS011;3638;48.820;9.244;2023-09-12T06:46:30;14.10;;;9.25;;
7193;SDS011;3638;48.820;9.244;2023-09-12T06:49:00;15.43;;;9.82;;
7193;SDS011;3638;48.820;9.244;2023-09-12T06:51:28;10.95;;;8.95;;
7193;SDS011;3638;48.820;9.244;2023-09-12T06:53:56;11.85;;;9.10;;
7193;SDS011;3638;48.820;9.244;2023-09-12T06:56:24;11.52;;;8.90;;
7193;SDS011;3638;48.820;9.244;2023-09-12T06:58:52;13.15;;;8.38;;
7193;SDS011;3638;48.820;9.244;2023-09-12T07:01:20;14.32;;;8.45;;
7193;SDS011;3638;48.820;9.244;2023-09-12T07:03:47;9.80;;;7.90;;
7193;SDS011;3638;48.820;9.244;2023-09-12T07:06:18;11.13;;;8.20;;
7193;SDS011;3638;48.820;9.244;2023-09-12T07:08:46;12.90;;;9.02;;
7193;SDS011;3638;48.820;9.244;2023-09-12T07:11:13;13.20;;;8.80;;
7193;SDS011;3638;48.820;9.244;2023-09-12T07:13:42;11.82;;;8.80;;
7193;SDS011;3638;48.820;9.244;2023-09-12T07:16:09;10.13;;;8.27;;
7193;SDS011;3638;48.820;9.244;2023-09-12T07:18:36;13.23;;;9.07;;
7193;SDS011;3638;48.820;9.244;2023-09-12T07:21:04;15.57;;;9.73;;
7193;SDS011;3638;48.820;9.244;2023-09-12T07:23:32;11.68;;;8.45;;
7193;SDS011;3638;48.820;9.244;2023-09-12T07:26:00;12.98;;;8.20;;
7193;SDS011;3638;48.820;9.244;2023-09-12T07:28:27;12.40;;;8.48;;
7193;SDS011;3638;48.820;9.244;2023-09-12T07:30:57;12.70;;;8.95;;
7193;SDS011;3638;48.820;9.244;2023-09-12T07:33:24;11.60;;;8.82;;
7193;SDS011;3638;48.820;9.244;2023-09-12T07:35:52;10.77;;;8.63;;
7193;SDS011;3638;48.820;9.244;2023-09-12T07:38:20;13.50;;;9.07;;
7193;SDS011;3638;48.820;9.244;2023-09-12T07:40:47;14.00;;;8.75;;
7193;SDS011;3638;48.820;9.244;2023-09-12T07:43:14;14.45;;;8.70;;
7193;SDS011;3638;48.820;9.244;2023-09-12T07:45:42;14.85;;;9.57;;
7193;SDS011;3638;48.820;9.244;2023-09-12T07:48:10;11.90;;;8.50;;
7193;SDS011;3638;48.820;9.244;2023-09-12T07:50:37;9.65;;;8.52;;
7193;SDS011;3638;48.820;9.244;2023-09-12T07:53:05;12.60;;;8.23;;
7193;SDS011;3638;48.820;9.244;2023-09-12T07:55:35;14.95;;;8.93;;
7193;SDS011;3638;48.820;9.244;2023-09-12T07:58:10;15.70;;;8.48;;
7193;SDS011;3638;48.820;9.244;2023-09-12T08:00:37;14.07;;;8.57;;
7193;SDS011;3638;48.820;9.244;2023-09-12T08:03:04;9.15;;;8.02;;
7193;SDS011;3638;48.820;9.244;2023-09-12T08:05:33;13.93;;;8.07;;
7193;SDS011;3638;48.820;9.244;2023-09-12T08:08:00;9.35;;;8.10;;
7193;SDS011;3638;48.820;9.244;2023-09-12T08:10:28;14.85;;;8.40;;
7193;SDS011;3638;48.820;9.244;2023-09-12T08:12:55;14.48;;;7.88;;
7193;SDS011;3638;48.820;9.244;2023-09-12T08:15:22;11.85;;;7.85;;
7193;SDS011;3638;48.820;9.244;2023-09-12T08:17:50;13.63;;;7.97;;
7193;SDS011;3638;48.820;9.244;2023-09-12T08:20:18;10.52;;;7.25;;
7193;SDS011;3638;48.820;9.244;2023-09-12T08:22:47;13.20;;;8.18;;
7193;SDS011;3638;48.820;9.244;2023-09-12T08:25:14;11.23;;;7.72;;
7193;SDS011;3638;48.820;9.244;2023-09-12T08:27:42;11.65;;;8.07;;
7193;SDS011;3638;48.820;9.244;2023-09-12T08:30:10;9.68;;;8.15;;
7193;SDS011;3638;48.820;9.244;2023-09-12T08:32:38;9.88;;;7.63;;
7193;SDS011;3638;48.820;9.244;2023-09-12T08:35:08;14.55;;;7.97;;
7193;SDS011;3638;48.820;9.244;2023-09-12T08:37:37;10.27;;;8.68;;
7193;SDS011;3638;48.820;9.244;2023-09-12T08:40:07;9.27;;;8.13;;
7193;SDS011;3638;48.820;9.244;2023-09-12T08:42:36;12.27;;;8.50;;
7193;SDS011;3638;48.820;9.244;2023-09-12T08:45:11;12.98;;;8.00;;
7193;SDS011;3638;48.820;9.244;2023-09-12T08:47:40;11.48;;;8.00;;
7193;SDS011;3638;48.820;9.244;2023-09-12T08:50:09;12.20;;;8.13;;
7193;SDS011;3638;48.820;9.244;2023-09-12T08:52:38;13.55;;;8.98;;
7193;SDS011;3638;48.820;9.244;2023-09-12T08:55:07;10.38;;;8.35;;
7193;SDS011;3638;48.820;9.244;2023-09-12T08:57:35;14.32;;;8.95;;
7193;SDS011;3638;48.820;9.244;2023-09-12T09:00:04;11.68;;;8.95;;
7193;SDS011;3638;48.820;9.244;2023-09-12T09:02:34;13.77;;;8.98;;
7193;SDS011;3638;48.820;9.244;2023-09-12T09:05:02;12.88;;;7.78;;
7193;SDS011;3638;48.820;9.244;2023-09-12T09:07:31;12.80;;;8.52;;
7193;SDS011;3638;48.820;9.244;2023-09-12T09:10:00;11.98;;;8.20;;
7193;SDS011;3638;48.820;9.244;2023-09-12T09:12:31;10.23;;;8.00;;
7193;SDS011;3638;48.820;9.244;2023-09-12T09:14:58;12.15;;;8.38;;
7193;SDS011;3638;48.820;9.244;2023-09-12T09:17:26;9.90;;;8.10;;
7193;SDS011;3638;48.820;9.244;2023-09-12T09:19:53;12.00;;;7.97;;
7193;SDS011;3638;48.820;9.244;2023-09-12T09:22:20;12.25;;;8.18;;
7193;SDS011;3638;48.820;9.244;2023-09-12T09:24:48;12.02;;;8.57;;
7193;SDS011;3638;48.820;9.244;2023-09-12T09:27:25;11.32;;;8.40;;
7193;SDS011;3638;48.820;9.244;2023-09-12T09:30:00;10.20;;;8.57;;
7193;SDS011;3638;48.820;9.244;2023-09-12T09:32:28;9.68;;;7.80;;
7193;SDS011;3638;48.820;9.244;2023-09-12T09:34:55;11.05;;;8.25;;
7193;SDS011;3638;48.820;9.244;2023-09-12T09:37:22;13.77;;;9.07;;
7193;SDS011;3638;48.820;9.244;2023-09-12T09:39:50;10.68;;;8.57;;
7193;SDS011;3638;48.820;9.244;2023-09-12T09:42:18;9.77;;;8.00;;
7193;SDS011;3638;48.820;9.244;2023-09-12T09:44:47;12.15;;;8.82;;
7193;SDS011;3638;48.820;9.244;2023-09-12T09:47:15;9.30;;;7.95;;
7193;SDS011;3638;48.820;9.244;2023-09-12T09:49:44;8.00;;;7.20;;
7193;SDS011;3638;48.820;9.244;2023-09-12T09:52:12;9.88;;;8.23;;
7193;SDS011;3638;48.820;9.244;2023-09-12T09:54:42;8.57;;;7.57;;
7193;SDS011;3638;48.820;9.244;2023-09-12T09:57:11;10.65;;;8.10;;
7193;SDS011;3638;48.820;9.244;2023-09-12T09:59:38;12.35;;;7.80;;
7193;SDS011;3638;48.820;9.244;2023-09-12T10:02:07;9.80;;;7.70;;
7193;SDS011;3638;48.820;9.244;2023-09-12T10:04:39;11.32;;;9.07;;
7193;SDS011;3638;48.820;9.244;2023-09-12T10:07:08;10.77;;;7.53;;
7193;SDS011;3638;48.820;9.244;2023-09-12T10:09:36;9.45;;;8.40;;
7193;SDS011;3638;48.820;9.244;2023-09-12T10:12:04;11.35;;;8.07;;
7193;SDS011;3638;48.820;9.244;2023-09-12T10:14:31;12.25;;;8.02;;
7193;SDS011;3638;48.820;9.244;2023-09-12T10:17:01;10.95;;;7.97;;
7193;SDS011;3638;48.820;9.244;2023-09-12T10:19:32;9.02;;;8.13;;
7193;SDS011;3638;48.820;9.244;2023-09-12T10:22:06;12.38;;;8.15;;
7193;SDS011;3638;48.820;9.244;2023-09-12T10:24:35;9.68;;;8.10;;
7193;SDS011;3638;48.820;9.244;2023-09-12T10:27:03;9.10;;;8.05;;
7193;SDS011;3638;48.820;9.244;2023-09-12T10:29:31;9.27;;;8.23;;
7193;SDS011;3638;48.820;9.244;2023-09-12T10:31:59;11.38;;;8.25;;
7193;SDS011;3638;48.820;9.244;2023-09-12T10:34:27;13.02;;;8.68;;
7193;SDS011;3638;48.820;9.244;2023-09-12T10:36:55;10.13;;;7.80;;
7193;SDS011;3638;48.820;9.244;2023-09-12T10:39:25;13.60;;;8.23;;
7193;SDS011;3638;48.820;9.244;2023-09-12T10:41:54;11.60;;;7.78;;
7193;SDS011;3638;48.820;9.244;2023-09-12T10:44:21;11.40;;;8.30;;
7193;SDS011;3638;48.820;9.244;2023-09-12T10:46:50;12.57;;;8.23;;
7193;SDS011;3638;48.820;9.244;2023-09-12T10:49:19;12.05;;;7.40;;
7193;SDS011;3638;48.820;9.244;2023-09-12T10:51:47;8.95;;;8.00;;
7193;SDS011;3638;48.820;9.244;2023-09-12T10:54:16;11.93;;;8.30;;
7193;SDS011;3638;48.820;9.244;2023-09-12T10:56:55;12.85;;;8.95;;
7193;SDS011;3638;48.820;9.244;2023-09-12T10:59:29;12.73;;;8.70;;
7193;SDS011;3638;48.820;9.244;2023-09-12T11:04:55;11.40;;;8.02;;
7193;SDS011;3638;48.820;9.244;2023-09-12T11:07:32;9.18;;;7.80;;
7193;SDS011;3638;48.820;9.244;2023-09-12T11:10:17;11.38;;;8.20;;
7193;SDS011;3638;48.820;9.244;2023-09-12T11:12:46;10.57;;;7.75;;
7193;SDS011;3638;48.820;9.244;2023-09-12T11:15:14;11.00;;;7.57;;
7193;SDS011;3638;48.820;9.244;2023-09-12T11:17:42;10.63;;;7.53;;
7193;SDS011;3638;48.820;9.244;2023-09-12T11:20:11;10.70;;;7.85;;
7193;SDS011;3638;48.820;9.244;2023-09-12T11:22:40;9.75;;;7.18;;
7193;SDS011;3638;48.820;9.244;2023-09-12T11:25:18;10.55;;;7.70;;
7193;SDS011;3638;48.820;9.244;2023-09-12T11:28:01;11.93;;;7.53;;
7193;SDS011;3638;48.820;9.244;2023-09-12T11:30:31;11.27;;;7.15;;
7193;SDS011;3638;48.820;9.244;2023-09-12T11:32:59;6.60;;;5.90;;
7193;SDS011;3638;48.820;9.244;2023-09-12T11:35:30;12.30;;;7.57;;
7193;SDS011;3638;48.820;9.244;2023-09-12T11:38:03;12.82;;;7.25;;
7193;SDS011;3638;48.820;9.244;2023-09-12T11:40:42;7.88;;;6.93;;
7193;SDS011;3638;48.820;9.244;2023-09-12T11:43:18;8.93;;;6.18;;
7193;SDS011;3638;48.820;9.244;2023-09-12T11:45:47;8.85;;;6.88;;
7193;SDS011;3638;48.820;9.244;2023-09-12T11:48:16;9.43;;;7.25;;
7193;SDS011;3638;48.820;9.244;2023-09-12T11:50:49;7.07;;;6.38;;
7193;SDS011;3638;48.820;9.244;2023-09-12T11:53:19;10.10;;;6.90;;
7193;SDS011;3638;48.820;9.244;2023-09-12T11:55:51;10.43;;;7.30;;
7193;SDS011;3638;48.820;9.244;2023-09-12T11:58:20;9.38;;;6.28;;
7193;SDS011;3638;48.820;9.244;2023-09-12T12:00:48;8.48;;;6.82;;
7193;SDS011;3638;48.820;9.244;2023-09-12T12:03:17;10.50;;;6.95;;
7193;SDS011;3638;48.820;9.244;2023-09-12T12:05:47;6.50;;;5.85;;
7193;SDS011;3638;48.820;9.244;2023-09-12T12:08:15;10.27;;;6.55;;
7193;SDS011;3638;48.820;9.244;2023-09-12T12:10:43;9.68;;;6.57;;
7193;SDS011;3638;48.820;9.244;2023-09-12T12:13:17;9.90;;;6.82;;
7193;SDS011;3638;48.820;9.244;2023-09-12T12:15:45;9.13;;;6.03;;
7193;SDS011;3638;48.820;9.244;2023-09-12T12:18:12;9.05;;;6.38;;
7193;SDS011;3638;48.820;9.244;2023-09-12T12:20:39;9.40;;;6.47;;
7193;SDS011;3638;48.820;9.244;2023-09-12T12:23:07;8.95;;;6.63;;
7193;SDS011;3638;48.820;9.244;2023-09-12T12:25:34;11.05;;;6.28;;
7193;SDS011;3638;48.820;9.244;2023-09-12T12:28:02;11.23;;;6.05;;
7193;SDS011;3638;48.820;9.244;2023-09-12T12:30:31;7.25;;;6.30;;
7193;SDS011;3638;48.820;9.244;2023-09-12T12:33:00;6.80;;;5.90;;
7193;SDS011;3638;48.820;9.244;2023-09-12T12:35:28;8.10;;;6.15;;
7193;SDS011;3638;48.820;9.244;2023-09-12T12:37:56;8.65;;;6.90;;
7193;SDS011;3638;48.820;9.244;2023-09-12T12:40:23;9.63;;;6.30;;
7193;SDS011;3638;48.820;9.244;2023-09-12T12:42:50;8.07;;;6.15;;
7193;SDS011;3638;48.820;9.244;2023-09-12T12:45:18;8.85;;;5.88;;
7193;SDS011;3638;48.820;9.244;2023-09-12T12:47:51;8.68;;;6.00;;
7193;SDS011;3638;48.820;9.244;2023-09-12T12:50:23;6.85;;;5.95;;
7193;SDS011;3638;48.820;9.244;2023-09-12T12:52:50;8.05;;;6.00;;
7193;SDS011;3638;48.820;9.244;2023-09-12T12:55:17;5.50;;;4.97;;
7193;SDS011;3638;48.820;9.244;2023-09-12T12:57:47;9.35;;;5.60;;
7193;SDS011;3638;48.820;9.244;2023-09-12T13:00:15;6.68;;;5.25;;
7193;SDS011;3638;48.820;9.244;2023-09-12T13:02:44;7.70;;;5.88;;
7193;SDS011;3638;48.820;9.244;2023-09-12T13:05:23;8.60;;;5.80;;
7193;SDS011;3638;48.820;9.244;2023-09-12T13:07:51;9.25;;;5.57;;
7193;SDS011;3638;48.820;9.244;2023-09-12T13:10:19;7.03;;;5.50;;
7193;SDS011;3638;48.820;9.244;2023-09-12T13:12:46;9.80;;;5.80;;
7193;SDS011;3638;48.820;9.244;2023-09-12T13:15:13;7.00;;;5.70;;
7193;SDS011;3638;48.820;9.244;2023-09-12T13:17:42;7.32;;;5.93;;
7193;SDS011;3638;48.820;9.244;2023-09-12T13:20:10;8.55;;;5.90;;
7193;SDS011;3638;48.820;9.244;2023-09-12T13:22:38;8.88;;;5.65;;
7193;SDS011;3638;48.820;9.244;2023-09-12T13:25:08;8.90;;;6.00;;
7193;SDS011;3638;48.820;9.244;2023-09-12T13:27:36;8.25;;;5.88;;
7193;SDS011;3638;48.820;9.244;2023-09-12T13:30:03;7.28;;;5.78;;
7193;SDS011;3638;48.820;9.244;2023-09-12T13:32:32;9.45;;;5.53;;
7193;SDS011;3638;48.820;9.244;2023-09-12T13:34:59;12.40;;;6.32;;
7193;SDS011;3638;48.820;9.244;2023-09-12T13:37:26;7.80;;;5.70;;
7193;SDS011;3638;48.820;9.244;2023-09-12T13:39:56;9.90;;;6.25;;
7193;SDS011;3638;48.820;9.244;2023-09-12T13:42:23;7.55;;;6.07;;
7193;SDS011;3638;48.820;9.244;2023-09-12T13:44:53;6.45;;;5.78;;
7193;SDS011;3638;48.820;9.244;2023-09-12T13:47:20;8.52;;;6.30;;
7193;SDS011;3638;48.820;9.244;2023-09-12T13:49:48;8.45;;;6.00;;
7193;SDS011;3638;48.820;9.244;2023-09-12T13:52:16;10.18;;;6.45;;
7193;SDS011;3638;48.820;9.244;2023-09-12T13:54:45;6.65;;;6.00;;
7193;SDS011;3638;48.820;9.244;2023-09-12T13:57:13;6.25;;;5.53;;
7193;SDS011;3638;48.820;9.244;2023-09-12T13:59:41;9.40;;;5.78;;
7193;SDS011;3638;48.820;9.244;2023-09-12T14:02:08;10.73;;;6.20;;
7193;SDS011;3638;48.820;9.244;2023-09-12T14:04:36;9.10;;;6.78;;
7193;SDS011;3638;48.820;9.244;2023-09-12T14:07:03;7.78;;;6.07;;
7193;SDS011;3638;48.820;9.244;2023-09-12T14:09:30;10.80;;;6.88;;
7193;SDS011;3638;48.820;9.244;2023-09-12T14:11:57;7.82;;;6.43;;
7193;SDS011;3638;48.820;9.244;2023-09-12T14:14:26;9.30;;;6.25;;
7193;SDS011;3638;48.820;9.244;2023-09-12T14:16:53;9.95;;;6.63;;
7193;SDS011;3638;48.820;9.244;2023-09-12T14:19:20;8.20;;;6.20;;
7193;SDS011;3638;48.820;9.244;2023-09-12T14:21:48;9.13;;;5.70;;
7193;SDS011;3638;48.820;9.244;2023-09-12T14:24:15;9.43;;;6.55;;
7193;SDS011;3638;48.820;9.244;2023-09-12T14:26:42;8.65;;;6.18;;
7193;SDS011;3638;48.820;9.244;2023-09-12T14:29:09;10.82;;;6.28;;
7193;SDS011;3638;48.820;9.244;2023-09-12T14:31:38;10.63;;;6.38;;
7193;SDS011;3638;48.820;9.244;2023-09-12T14:34:14;7.95;;;6.30;;
7193;SDS011;3638;48.820;9.244;2023-09-12T14:36:41;6.80;;;6.10;;
7193;SDS011;3638;48.820;9.244;2023-09-12T14:39:11;9.50;;;7.07;;
7193;SDS011;3638;48.820;9.244;2023-09-12T14:41:38;8.38;;;6.50;;
7193;SDS011;3638;48.820;9.244;2023-09-12T14:44:06;8.38;;;7.28;;
7193;SDS011;3638;48.820;9.244;2023-09-12T14:46:33;11.30;;;6.85;;
7193;SDS011;3638;48.820;9.244;2023-09-12T14:49:01;13.18;;;7.50;;
7193;SDS011;3638;48.820;9.244;2023-09-12T14:51:29;9.80;;;7.53;;
7193;SDS011;3638;48.820;9.244;2023-09-12T14:53:56;7.88;;;6.63;;
7193;SDS011;3638;48.820;9.244;2023-09-12T14:56:23;8.30;;;6.57;;
7193;SDS011;3638;48.820;9.244;2023-09-12T14:58:50;12.80;;;7.25;;
7193;SDS011;3638;48.820;9.244;2023-09-12T15:01:18;10.85;;;6.93;;
7193;SDS011;3638;48.820;9.244;2023-09-12T15:03:45;10.88;;;7.35;;
7193;SDS011;3638;48.820;9.244;2023-09-12T15:06:13;11.13;;;6.78;;
7193;SDS011;3638;48.820;9.244;2023-09-12T15:08:41;8.98;;;6.88;;
7193;SDS011;3638;48.820;9.244;2023-09-12T15:11:08;12.88;;;7.00;;
7193;SDS011;3638;48.820;9.244;2023-09-12T15:13:35;10.27;;;7.45;;
7193;SDS011;3638;48.820;9.244;2023-09-12T15:16:03;10.15;;;6.65;;